Airfield :
LOGIN :

Register | Disclaimer

   EN    FR    IT 

 










Legend :    VFR   Marginal VFR   IFR   Intensive IFR   Very Intensive IFR
Visi :
Ceiling :
>= 8 km
>= 3000ft
5 to 8 km
1000 to 3000 ft
1500m to 5 km
500 to 1000 ft
800 to 1500m
200 to 500 ft
< 800m
< 200 ft
Symbols :   Thunderstorms  Fog  Heavy snow  Heavy precipitations  Wind > 20 kt
SIGMETs :     Misc.  Thunderstorms  Icing  Turbulence  Mountain Waves  Volcanic Ashes







- Airport Elevation : 141 ft
- IATA code : SKS


EKSP - Srydstrup Vojens

CURRENT METAR :
  • 192150Z 21003KT CAVOK 09/08 Q1021

EXPIRED METARs :
  • 192120Z 23005KT CAVOK 10/08 Q1021
  • 192050Z 22004KT CAVOK 11/08 Q1021
  • 192020Z 24004KT 9999 FEW029 10/08 Q1021
  • 191950Z 27007KT 9999 FEW029 12/08 Q1021
  • 191920Z 26009KT 9999 FEW030 13/08 Q1021

TAF TAF EKSP
Valid from the 19 at 21:00 until the 20 at 18:00 UTC


192025Z 1921/2018 24006KT 9999 SCT030 BKN080
BECMG 2008/2010 23015KT
TEMPO 2012/2018 22016G30KT BKN012
No reported NOTAMs for that airfield.



MET'MAP, your aeronautical weather chart ! - Copyright ORBIFLY December 2007 - Disclaimer

ORBIFLY MET'MAP TEAM :

Programming & Development : Alexandra Zaïnal
Concept & Development : Baudouin d'Aumeries
Co-Development & Prog : Marc-Olivier Méhu
Technical & hardware support : Manuel Goepfert

Contact : metmap@orbifly.com




SOURCES & CREDITS :

   NOAA